BAW58E EGLL-EHAM
Flight info
| Callsign | BAW58E |
|---|---|
| Flight time | 0h 35m |
| Altitude | 27000 |
| Route | BPK Q295 BRAIN M197 REDFA |
| Aircraft | A320/M-SDE3FGHIRWY/LB1 |
Departure
| Time | 2026-05-05 22:54 |
|---|---|
| Airport | London Heathrow Airport (EGLL) |
Arrival
| Time | 2026-05-05 23:29 |
|---|---|
| Airport | Amsterdam Airport Schiphol (EHAM) |
| Time | Latitude | Longitude | Altitude | Speed | Heading |
|---|---|---|---|---|---|
| 2026-05-05 22:32 | 51.46837 | -0.48619 | 86 ft | 0 kts | 179° |
| 2026-05-05 22:45 | 51.46851 | -0.48619 | 90 ft | 4 kts | 180° |
| 2026-05-05 22:46 | 51.46870 | -0.48619 | 86 ft | 4 kts | 219° |
| 2026-05-05 22:46 | 51.46877 | -0.48589 | 88 ft | 4 kts | 269° |
| 2026-05-05 22:46 | 51.46877 | -0.48566 | 86 ft | 0 kts | 269° |
| 2026-05-05 22:48 | 51.46877 | -0.48568 | 86 ft | 1 kts | 269° |
| 2026-05-05 22:49 | 51.46877 | -0.48592 | 88 ft | 3 kts | 269° |
| 2026-05-05 22:49 | 51.46877 | -0.48641 | 88 ft | 6 kts | 269° |
| 2026-05-05 22:49 | 51.46876 | -0.48715 | 90 ft | 8 kts | 266° |
| 2026-05-05 22:49 | 51.46838 | -0.48748 | 86 ft | 4 kts | 182° |
| 2026-05-05 22:50 | 51.46803 | -0.48750 | 86 ft | 7 kts | 179° |
| 2026-05-05 22:50 | 51.46738 | -0.48749 | 86 ft | 12 kts | 179° |
| 2026-05-05 22:50 | 51.46642 | -0.48750 | 86 ft | 15 kts | 185° |
| 2026-05-05 22:50 | 51.46604 | -0.48767 | 89 ft | 1 kts | 199° |
| 2026-05-05 22:51 | 51.46603 | -0.48767 | 89 ft | 0 kts | 199° |
| 2026-05-05 22:51 | 51.46587 | -0.48775 | 88 ft | 5 kts | 198° |
| 2026-05-05 22:51 | 51.46531 | -0.48786 | 86 ft | 11 kts | 170° |
| 2026-05-05 22:51 | 51.46478 | -0.48681 | 86 ft | 15 kts | 91° |
| 2026-05-05 22:52 | 51.46478 | -0.48638 | 86 ft | 0 kts | 89° |
| 2026-05-05 22:53 | 51.46479 | -0.48546 | 86 ft | 33 kts | 90° |
| 2026-05-05 22:53 | 51.46481 | -0.47804 | 87 ft | 97 kts | 89° |
| 2026-05-05 22:53 | 51.46485 | -0.46462 | 90 ft | 143 kts | 90° |
| 2026-05-05 22:53 | 51.46493 | -0.44772 | 531 ft | 149 kts | 88° |
| 2026-05-05 22:54 | 51.46505 | -0.43101 | 1166 ft | 151 kts | 88° |
| 2026-05-05 22:54 | 51.46633 | -0.41385 | 1591 ft | 164 kts | 70° |
| 2026-05-05 22:54 | 51.47256 | -0.39759 | 1869 ft | 186 kts | 50° |
| 2026-05-05 22:54 | 51.48102 | -0.38030 | 2114 ft | 210 kts | 54° |
| 2026-05-05 22:55 | 51.49006 | -0.36019 | 2472 ft | 234 kts | 54° |
| 2026-05-05 22:55 | 51.50001 | -0.33822 | 3106 ft | 248 kts | 56° |
| 2026-05-05 22:55 | 51.50754 | -0.31300 | 3964 ft | 253 kts | 69° |
| 2026-05-05 22:55 | 51.51376 | -0.28627 | 4896 ft | 257 kts | 68° |
| 2026-05-05 22:56 | 51.52003 | -0.25913 | 5782 ft | 262 kts | 68° |
| 2026-05-05 22:56 | 51.52643 | -0.23149 | 6606 ft | 267 kts | 68° |
| 2026-05-05 22:56 | 51.53297 | -0.20320 | 7402 ft | 272 kts | 68° |
| 2026-05-05 22:56 | 51.53959 | -0.17445 | 8210 ft | 277 kts | 68° |
| 2026-05-05 22:57 | 51.54629 | -0.14519 | 9014 ft | 281 kts | 68° |
| 2026-05-05 22:57 | 51.55310 | -0.11543 | 9856 ft | 286 kts | 67° |
| 2026-05-05 22:57 | 51.56007 | -0.08500 | 10399 ft | 299 kts | 67° |
| 2026-05-05 22:57 | 51.56753 | -0.05246 | 10591 ft | 322 kts | 68° |
| 2026-05-05 22:58 | 51.57558 | -0.01742 | 10754 ft | 345 kts | 68° |
| 2026-05-05 22:58 | 51.58403 | 0.01947 | 10855 ft | 366 kts | 68° |
| 2026-05-05 22:58 | 51.59306 | 0.05894 | 10998 ft | 385 kts | 68° |
| 2026-05-05 22:58 | 51.60239 | 0.09989 | 11423 ft | 393 kts | 68° |
| 2026-05-05 22:59 | 51.61182 | 0.14144 | 11964 ft | 398 kts | 69° |
| 2026-05-05 22:59 | 51.62132 | 0.18344 | 12538 ft | 402 kts | 69° |
| 2026-05-05 22:59 | 51.63092 | 0.22592 | 13116 ft | 406 kts | 69° |
| 2026-05-05 22:59 | 51.64060 | 0.26884 | 13686 ft | 410 kts | 69° |
| 2026-05-05 23:00 | 51.66013 | 0.35601 | 14721 ft | 417 kts | 69° |
| 2026-05-05 23:00 | 51.67002 | 0.40010 | 15241 ft | 419 kts | 69° |
| 2026-05-05 23:00 | 51.67998 | 0.44450 | 15749 ft | 422 kts | 69° |
| 2026-05-05 23:01 | 51.68996 | 0.48915 | 16269 ft | 425 kts | 70° |
| 2026-05-05 23:01 | 51.69995 | 0.53402 | 16805 ft | 427 kts | 70° |
| 2026-05-05 23:01 | 51.70988 | 0.57867 | 17320 ft | 429 kts | 70° |
| 2026-05-05 23:01 | 51.71997 | 0.62405 | 17847 ft | 431 kts | 70° |
| 2026-05-05 23:02 | 51.73015 | 0.66988 | 18354 ft | 433 kts | 70° |
| 2026-05-05 23:02 | 51.74029 | 0.71581 | 18786 ft | 436 kts | 70° |
| 2026-05-05 23:02 | 51.75047 | 0.76207 | 19208 ft | 439 kts | 70° |
| 2026-05-05 23:02 | 51.76071 | 0.80875 | 19620 ft | 442 kts | 70° |
| 2026-05-05 23:03 | 51.77099 | 0.85574 | 20007 ft | 446 kts | 70° |
| 2026-05-05 23:03 | 51.78136 | 0.90306 | 20406 ft | 449 kts | 70° |
| 2026-05-05 23:03 | 51.79180 | 0.95086 | 20784 ft | 452 kts | 70° |
| 2026-05-05 23:03 | 51.80225 | 0.99884 | 21165 ft | 454 kts | 70° |
| 2026-05-05 23:04 | 51.81276 | 1.04713 | 21543 ft | 457 kts | 70° |
| 2026-05-05 23:04 | 51.82332 | 1.09573 | 21847 ft | 460 kts | 70° |
| 2026-05-05 23:04 | 51.83392 | 1.14467 | 22165 ft | 463 kts | 70° |
| 2026-05-05 23:04 | 51.84456 | 1.19395 | 22484 ft | 465 kts | 70° |
| 2026-05-05 23:05 | 51.85509 | 1.24286 | 22800 ft | 468 kts | 70° |
| 2026-05-05 23:05 | 51.86578 | 1.29269 | 23210 ft | 468 kts | 70° |
| 2026-05-05 23:05 | 51.87643 | 1.34244 | 23678 ft | 467 kts | 70° |
| 2026-05-05 23:05 | 51.88706 | 1.39223 | 24083 ft | 467 kts | 70° |
| 2026-05-05 23:06 | 51.89762 | 1.44186 | 24499 ft | 466 kts | 71° |
| 2026-05-05 23:06 | 51.90816 | 1.49147 | 24930 ft | 465 kts | 71° |
| 2026-05-05 23:06 | 51.91867 | 1.54096 | 25405 ft | 463 kts | 71° |
| 2026-05-05 23:06 | 51.92914 | 1.59031 | 25840 ft | 462 kts | 71° |
| 2026-05-05 23:07 | 51.93957 | 1.63962 | 26280 ft | 463 kts | 72° |
| 2026-05-05 23:07 | 51.95000 | 1.68900 | 26691 ft | 462 kts | 72° |
| 2026-05-05 23:07 | 51.96040 | 1.73838 | 26939 ft | 464 kts | 72° |
| 2026-05-05 23:07 | 51.97085 | 1.78826 | 26979 ft | 472 kts | 72° |
| 2026-05-05 23:08 | 51.98144 | 1.83897 | 26973 ft | 478 kts | 72° |
| 2026-05-05 23:08 | 51.99192 | 1.88944 | 26978 ft | 478 kts | 72° |
| 2026-05-05 23:08 | 52.00270 | 1.94136 | 26978 ft | 480 kts | 72° |
| 2026-05-05 23:08 | 52.01334 | 1.99263 | 26972 ft | 479 kts | 73° |
| 2026-05-05 23:09 | 52.02383 | 2.04311 | 26975 ft | 478 kts | 73° |
| 2026-05-05 23:09 | 52.03442 | 2.09420 | 26976 ft | 478 kts | 72° |
| 2026-05-05 23:09 | 52.04500 | 2.14557 | 26780 ft | 479 kts | 72° |
| 2026-05-05 23:09 | 52.05553 | 2.19701 | 26523 ft | 479 kts | 73° |
| 2026-05-05 23:10 | 52.06605 | 2.24844 | 26276 ft | 481 kts | 72° |
| 2026-05-05 23:10 | 52.07659 | 2.30004 | 26016 ft | 481 kts | 73° |
| 2026-05-05 23:10 | 52.08712 | 2.35175 | 25765 ft | 482 kts | 73° |
| 2026-05-05 23:10 | 52.09640 | 2.40374 | 25370 ft | 473 kts | 79° |
| 2026-05-05 23:11 | 52.10166 | 2.45658 | 24192 ft | 476 kts | 83° |
| 2026-05-05 23:11 | 52.10604 | 2.50989 | 23532 ft | 469 kts | 83° |
| 2026-05-05 23:11 | 52.10992 | 2.56197 | 22826 ft | 460 kts | 84° |
| 2026-05-05 23:11 | 52.11359 | 2.61339 | 22060 ft | 454 kts | 84° |
| 2026-05-05 23:12 | 52.11721 | 2.66405 | 21331 ft | 448 kts | 84° |
| 2026-05-05 23:12 | 52.12090 | 2.71408 | 20595 ft | 442 kts | 83° |
| 2026-05-05 23:12 | 52.12461 | 2.76290 | 19895 ft | 436 kts | 83° |
| 2026-05-05 23:12 | 52.12838 | 2.81155 | 19269 ft | 430 kts | 83° |
| 2026-05-05 23:13 | 52.13211 | 2.85931 | 18632 ft | 424 kts | 83° |
| 2026-05-05 23:13 | 52.13580 | 2.90685 | 17862 ft | 421 kts | 83° |
| 2026-05-05 23:13 | 52.13942 | 2.95373 | 17450 ft | 417 kts | 83° |
| 2026-05-05 23:13 | 52.14298 | 3.00074 | 17181 ft | 419 kts | 83° |
| 2026-05-05 23:14 | 52.14651 | 3.04783 | 16917 ft | 419 kts | 83° |
| 2026-05-05 23:14 | 52.15003 | 3.09487 | 16656 ft | 418 kts | 83° |
| 2026-05-05 23:14 | 52.15353 | 3.14181 | 16402 ft | 417 kts | 83° |
| 2026-05-05 23:14 | 52.15699 | 3.18862 | 16142 ft | 416 kts | 83° |
| 2026-05-05 23:15 | 52.16041 | 3.23530 | 15888 ft | 415 kts | 83° |
| 2026-05-05 23:15 | 52.16380 | 3.28187 | 15634 ft | 414 kts | 83° |
| 2026-05-05 23:15 | 52.16716 | 3.32841 | 14910 ft | 414 kts | 83° |
| 2026-05-05 23:15 | 52.17050 | 3.37489 | 14124 ft | 413 kts | 83° |
| 2026-05-05 23:16 | 52.17383 | 3.42127 | 13464 ft | 409 kts | 83° |
| 2026-05-05 23:16 | 52.17710 | 3.46697 | 12704 ft | 405 kts | 83° |
| 2026-05-05 23:16 | 52.18027 | 3.51166 | 11893 ft | 389 kts | 83° |
| 2026-05-05 23:16 | 52.18337 | 3.55537 | 11368 ft | 387 kts | 83° |
| 2026-05-05 23:17 | 52.18641 | 3.59834 | 11113 ft | 370 kts | 83° |
| 2026-05-05 23:17 | 52.18919 | 3.63837 | 10864 ft | 342 kts | 83° |
| 2026-05-05 23:17 | 52.19174 | 3.67553 | 10622 ft | 319 kts | 83° |
| 2026-05-05 23:17 | 52.19410 | 3.71037 | 10378 ft | 300 kts | 82° |
| 2026-05-05 23:18 | 52.19636 | 3.74376 | 10143 ft | 294 kts | 83° |
| 2026-05-05 23:18 | 52.19858 | 3.77621 | 9932 ft | 288 kts | 82° |
| 2026-05-05 23:18 | 52.20080 | 3.80859 | 9812 ft | 287 kts | 82° |
| 2026-05-05 23:18 | 52.20304 | 3.84090 | 9678 ft | 287 kts | 82° |
| 2026-05-05 23:19 | 52.20526 | 3.87327 | 9544 ft | 286 kts | 82° |
| 2026-05-05 23:19 | 52.20742 | 3.90546 | 9410 ft | 285 kts | 82° |
| 2026-05-05 23:19 | 52.20955 | 3.93755 | 9277 ft | 284 kts | 82° |
| 2026-05-05 23:19 | 52.21170 | 3.96949 | 9139 ft | 283 kts | 83° |
| 2026-05-05 23:20 | 52.21385 | 4.00129 | 9008 ft | 282 kts | 82° |
| 2026-05-05 23:20 | 52.21599 | 4.03315 | 8650 ft | 283 kts | 82° |
| 2026-05-05 23:20 | 52.21810 | 4.06514 | 8233 ft | 284 kts | 82° |
| 2026-05-05 23:20 | 52.22015 | 4.09675 | 7800 ft | 278 kts | 82° |
| 2026-05-05 23:21 | 52.22218 | 4.12781 | 7333 ft | 274 kts | 82° |
| 2026-05-05 23:21 | 52.22414 | 4.15795 | 6907 ft | 269 kts | 82° |
| 2026-05-05 23:21 | 52.22611 | 4.18817 | 6488 ft | 267 kts | 81° |
| 2026-05-05 23:21 | 52.22804 | 4.21804 | 6062 ft | 262 kts | 81° |
| 2026-05-05 23:22 | 52.22995 | 4.24777 | 5629 ft | 264 kts | 81° |
| 2026-05-05 23:22 | 52.23185 | 4.27736 | 5208 ft | 259 kts | 82° |
| 2026-05-05 23:22 | 52.23363 | 4.30566 | 5044 ft | 242 kts | 81° |
| 2026-05-05 23:22 | 52.23528 | 4.33214 | 4855 ft | 227 kts | 81° |
| 2026-05-05 23:23 | 52.23599 | 4.35764 | 4732 ft | 226 kts | 92° |
| 2026-05-05 23:23 | 52.23236 | 4.38219 | 4597 ft | 221 kts | 109° |
| 2026-05-05 23:23 | 52.22589 | 4.40451 | 4418 ft | 215 kts | 111° |
| 2026-05-05 23:23 | 52.21949 | 4.42643 | 4159 ft | 213 kts | 110° |
| 2026-05-05 23:24 | 52.21321 | 4.44811 | 3898 ft | 211 kts | 110° |
| 2026-05-05 23:24 | 52.20896 | 4.47049 | 3621 ft | 204 kts | 91° |
| 2026-05-05 23:24 | 52.20848 | 4.49344 | 3350 ft | 202 kts | 87° |
| 2026-05-05 23:24 | 52.20822 | 4.51632 | 3077 ft | 200 kts | 82° |
| 2026-05-05 23:25 | 52.21198 | 4.53758 | 2803 ft | 194 kts | 57° |
| 2026-05-05 23:25 | 52.21919 | 4.55603 | 2535 ft | 191 kts | 55° |
| 2026-05-05 23:25 | 52.22611 | 4.57385 | 2278 ft | 182 kts | 56° |
| 2026-05-05 23:25 | 52.23251 | 4.59042 | 2075 ft | 167 kts | 56° |
| 2026-05-05 23:26 | 52.23846 | 4.60584 | 1855 ft | 151 kts | 56° |
| 2026-05-05 23:26 | 52.24375 | 4.61956 | 1659 ft | 138 kts | 55° |
| 2026-05-05 23:26 | 52.24878 | 4.63259 | 1469 ft | 134 kts | 56° |
| 2026-05-05 23:26 | 52.25367 | 4.64529 | 1291 ft | 132 kts | 56° |
| 2026-05-05 23:27 | 52.25843 | 4.65811 | 1136 ft | 131 kts | 56° |
| 2026-05-05 23:27 | 52.26319 | 4.67080 | 956 ft | 131 kts | 55° |
| 2026-05-05 23:27 | 52.26809 | 4.68339 | 801 ft | 131 kts | 54° |
| 2026-05-05 23:27 | 52.27299 | 4.69594 | 654 ft | 131 kts | 54° |
| 2026-05-05 23:28 | 52.27794 | 4.70857 | 453 ft | 133 kts | 53° |
| 2026-05-05 23:28 | 52.28276 | 4.72107 | 275 ft | 131 kts | 54° |
| 2026-05-05 23:28 | 52.28759 | 4.73346 | 91 ft | 130 kts | 54° |
| 2026-05-05 23:28 | 52.29234 | 4.74565 | 2 ft | 118 kts | 57° |
| 2026-05-05 23:29 | 52.29607 | 4.75536 | -2 ft | 87 kts | 57° |
| 2026-05-05 23:29 | 52.29804 | 4.76049 | -4 ft | 75 kts | 58° |
| 2026-05-05 23:29 | 52.30060 | 4.76716 | -2 ft | 65 kts | 57° |
| 2026-05-05 23:29 | 52.30256 | 4.77218 | -4 ft | 34 kts | 57° |
| 2026-05-05 23:30 | 52.30470 | 4.77412 | -2 ft | 17 kts | 345° |
| 2026-05-05 23:30 | 52.30543 | 4.77342 | -1 ft | 19 kts | 328° |
| 2026-05-05 23:30 | 52.30645 | 4.77212 | -1 ft | 16 kts | 282° |
| 2026-05-05 23:30 | 52.30647 | 4.77100 | -1 ft | 11 kts | 275° |
| 2026-05-05 23:31 | 52.30678 | 4.77022 | -1 ft | 8 kts | 356° |
| 2026-05-05 23:31 | 52.30712 | 4.77026 | -1 ft | 2 kts | 3° |
| 2026-05-05 23:31 | 52.30718 | 4.77026 | -1 ft | 0 kts | 3° |